createdAt,value
2022-11-24T00:02:10.633Z,3.60
2022-11-24T00:04:36.976Z,3.40
2022-11-24T00:07:03.231Z,3.27
2022-11-24T00:09:29.917Z,3.36
2022-11-24T00:11:56.252Z,3.11
2022-11-24T00:14:22.498Z,3.13
2022-11-24T00:16:48.818Z,2.63
2022-11-24T00:19:19.578Z,2.74
2022-11-24T00:21:46.214Z,2.74
2022-11-24T00:24:12.449Z,2.70
2022-11-24T00:26:38.680Z,2.48
2022-11-24T00:29:04.914Z,2.61
2022-11-24T00:31:31.195Z,2.50
2022-11-24T00:33:57.519Z,2.38
2022-11-24T00:36:23.761Z,2.34
2022-11-24T00:38:49.997Z,2.57
2022-11-24T00:41:16.239Z,2.32
2022-11-24T00:43:42.507Z,2.22
2022-11-24T00:46:08.798Z,2.37
2022-11-24T00:48:35.107Z,2.40
2022-11-24T00:51:01.356Z,2.38
2022-11-24T00:53:27.607Z,2.27
2022-11-24T00:55:53.854Z,2.08
2022-11-24T00:58:20.089Z,2.23
2022-11-24T01:00:46.326Z,1.85
2022-11-24T01:03:12.577Z,1.82
2022-11-24T01:05:38.858Z,2.01
2022-11-24T01:08:05.090Z,2.04
2022-11-24T01:10:31.318Z,2.07
2022-11-24T01:12:57.555Z,2.29
2022-11-24T01:15:23.809Z,1.82
2022-11-24T01:17:50.047Z,2.14
2022-11-24T01:20:16.282Z,1.94
2022-11-24T01:22:42.535Z,2.04
2022-11-24T01:25:08.785Z,1.85
2022-11-24T01:27:35.010Z,1.83
2022-11-24T01:30:01.280Z,1.65
2022-11-24T01:32:27.521Z,1.60
2022-11-24T01:34:53.784Z,1.86
2022-11-24T01:37:20.013Z,2.12
2022-11-24T01:39:46.266Z,2.11
2022-11-24T01:42:12.497Z,2.08
2022-11-24T01:44:38.754Z,2.21
2022-11-24T01:47:04.985Z,2.24
2022-11-24T01:49:31.226Z,2.34
2022-11-24T01:51:57.478Z,2.19
2022-11-24T01:54:23.723Z,2.46
2022-11-24T01:56:49.977Z,2.55
2022-11-24T01:59:16.234Z,2.58
2022-11-24T02:01:42.531Z,2.68
2022-11-24T02:04:08.786Z,2.45
2022-11-24T02:06:35.022Z,2.41
2022-11-24T02:09:01.287Z,2.60
2022-11-24T02:11:27.529Z,2.81
2022-11-24T02:13:53.769Z,3.23
2022-11-24T02:16:20.039Z,3.14
2022-11-24T02:18:46.309Z,3.34
2022-11-24T02:21:12.599Z,3.34
2022-11-24T02:23:38.902Z,3.24
2022-11-24T02:26:05.160Z,3.38
2022-11-24T02:28:31.418Z,3.20
2022-11-24T02:30:57.673Z,3.28
2022-11-24T02:33:23.981Z,3.06
2022-11-24T02:35:50.215Z,3.20
2022-11-24T02:38:16.442Z,3.16
2022-11-24T02:40:42.793Z,3.34
2022-11-24T02:43:09.044Z,3.36
2022-11-24T02:45:35.284Z,3.24
2022-11-24T02:48:01.542Z,3.31
2022-11-24T02:50:27.788Z,3.61
2022-11-24T02:52:54.023Z,3.30
2022-11-24T02:55:20.274Z,3.23
2022-11-24T02:57:46.528Z,3.02
2022-11-24T03:00:12.840Z,3.12
2022-11-24T03:02:39.171Z,3.22
2022-11-24T03:05:05.418Z,3.21
2022-11-24T03:07:31.715Z,3.18
2022-11-24T03:09:58.002Z,3.37
2022-11-24T03:12:24.249Z,3.24
2022-11-24T03:14:50.497Z,3.33
2022-11-24T03:17:16.761Z,3.02
2022-11-24T03:19:43.010Z,2.78
2022-11-24T03:22:09.255Z,2.86
2022-11-24T03:24:35.785Z,2.84
2022-11-24T03:27:02.195Z,3.02
2022-11-24T03:29:28.433Z,2.79
2022-11-24T03:31:54.661Z,2.57
2022-11-24T03:34:20.907Z,2.57
2022-11-24T03:36:47.162Z,2.51
2022-11-24T03:39:13.409Z,2.93
2022-11-24T03:41:39.646Z,2.80
2022-11-24T03:44:05.878Z,2.69
2022-11-24T03:46:32.158Z,2.36
2022-11-24T03:48:58.421Z,2.55
2022-11-24T03:51:24.682Z,2.71
2022-11-24T03:53:50.926Z,2.59
2022-11-24T03:56:17.191Z,2.56
2022-11-24T03:58:43.427Z,2.64
2022-11-24T04:01:09.653Z,2.97
2022-11-24T04:03:35.910Z,2.84
2022-11-24T04:06:02.149Z,2.74
2022-11-24T04:08:28.380Z,2.94
2022-11-24T04:10:54.614Z,2.67
2022-11-24T04:13:20.871Z,3.03
2022-11-24T04:15:47.160Z,2.88
2022-11-24T04:18:13.441Z,2.90
2022-11-24T04:20:39.929Z,3.12
2022-11-24T04:23:06.170Z,3.06
2022-11-24T04:25:32.413Z,2.94
2022-11-24T04:27:58.660Z,2.93
2022-11-24T04:30:24.894Z,2.94
2022-11-24T04:32:51.121Z,2.90
2022-11-24T04:35:17.357Z,2.76
2022-11-24T04:37:43.584Z,3.05
2022-11-24T04:40:09.836Z,2.84
2022-11-24T04:42:36.086Z,2.89
2022-11-24T04:45:02.318Z,2.83
2022-11-24T04:47:28.655Z,2.92
2022-11-24T04:49:54.897Z,3.35
2022-11-24T04:52:21.138Z,2.88
2022-11-24T04:54:47.372Z,2.94
2022-11-24T04:57:13.615Z,2.81
2022-11-24T04:59:39.873Z,3.01
2022-11-24T05:02:06.163Z,3.02
2022-11-24T05:04:32.786Z,3.02
2022-11-24T05:06:59.289Z,3.10
2022-11-24T05:09:36.929Z,3.23
2022-11-24T05:12:11.774Z,3.62
2022-11-24T05:14:38.021Z,3.16
2022-11-24T05:17:04.371Z,3.31
2022-11-24T05:19:32.472Z,3.21
2022-11-24T05:21:58.831Z,3.52
2022-11-24T05:24:25.066Z,3.14
2022-11-24T05:26:51.327Z,3.43
2022-11-24T05:29:17.574Z,3.73
2022-11-24T05:31:43.861Z,3.44
2022-11-24T05:34:10.171Z,3.65
2022-11-24T05:36:36.418Z,3.55
2022-11-24T05:39:02.647Z,3.14
2022-11-24T05:41:28.916Z,3.28
2022-11-24T05:43:55.149Z,3.34
2022-11-24T05:46:21.440Z,3.46
2022-11-24T05:48:47.698Z,3.25
2022-11-24T05:51:13.950Z,3.77
2022-11-24T05:53:40.186Z,3.41
2022-11-24T05:56:06.436Z,4.08
2022-11-24T05:58:32.687Z,3.72
2022-11-24T06:00:58.937Z,3.63
2022-11-24T06:03:25.172Z,3.35
2022-11-24T06:05:51.460Z,3.52
2022-11-24T06:08:17.794Z,3.74
2022-11-24T06:10:44.033Z,3.78
2022-11-24T06:13:10.338Z,3.58
2022-11-24T06:15:36.694Z,3.59
2022-11-24T06:18:02.956Z,3.59
2022-11-24T06:20:32.629Z,3.48
2022-11-24T06:22:59.402Z,3.38
2022-11-24T06:25:25.635Z,2.96
2022-11-24T06:27:51.871Z,3.22
2022-11-24T06:30:18.148Z,2.95
2022-11-24T06:32:49.157Z,3.11
2022-11-24T06:35:16.043Z,2.96
2022-11-24T06:37:42.269Z,3.71
2022-11-24T06:40:08.528Z,3.42
2022-11-24T06:42:34.757Z,3.73
2022-11-24T06:45:01.007Z,3.54
2022-11-24T06:47:27.243Z,3.46
2022-11-24T06:49:53.478Z,3.44
2022-11-24T06:52:19.724Z,3.54
2022-11-24T06:54:45.956Z,3.28
2022-11-24T06:57:12.202Z,3.23
2022-11-24T06:59:38.438Z,3.30
2022-11-24T07:02:04.690Z,3.47
2022-11-24T07:04:30.927Z,3.27
2022-11-24T07:06:57.178Z,3.44
2022-11-24T07:09:23.458Z,3.38
2022-11-24T07:11:49.685Z,3.42
2022-11-24T07:14:15.930Z,3.29
2022-11-24T07:16:42.226Z,3.56
2022-11-24T07:19:08.528Z,4.01
2022-11-24T07:21:34.775Z,3.44
2022-11-24T07:24:01.013Z,4.25
2022-11-24T07:26:27.243Z,3.70
2022-11-24T07:28:53.480Z,3.84
2022-11-24T07:31:19.774Z,4.17
2022-11-24T07:33:46.053Z,4.07
2022-11-24T07:36:12.297Z,4.48
2022-11-24T07:38:38.556Z,4.34
2022-11-24T07:41:04.807Z,4.31
2022-11-24T07:43:31.034Z,4.89
2022-11-24T07:45:57.358Z,4.32
2022-11-24T07:48:23.623Z,4.71
2022-11-24T07:50:55.323Z,5.25
2022-11-24T07:53:22.142Z,4.68
2022-11-24T07:55:48.389Z,4.98
2022-11-24T07:58:14.630Z,5.00
2022-11-24T08:00:40.878Z,5.20
2022-11-24T08:03:07.132Z,4.44
2022-11-24T08:05:33.373Z,4.37
2022-11-24T08:07:59.679Z,4.84
2022-11-24T08:10:25.973Z,4.64
2022-11-24T08:12:52.244Z,4.23
2022-11-24T08:15:18.498Z,4.70
2022-11-24T08:17:44.853Z,4.98
2022-11-24T08:20:11.082Z,4.73
2022-11-24T08:22:37.325Z,4.91
2022-11-24T08:25:03.564Z,4.35
2022-11-24T08:27:29.799Z,4.62
2022-11-24T08:29:56.035Z,4.08
2022-11-24T08:32:22.695Z,4.35
2022-11-24T08:34:48.993Z,4.59
2022-11-24T08:37:15.245Z,4.62
2022-11-24T08:39:41.524Z,4.69
2022-11-24T08:42:07.803Z,5.32
2022-11-24T08:44:34.477Z,5.56
2022-11-24T08:47:00.837Z,4.79
2022-11-24T08:49:27.084Z,5.24
2022-11-24T08:51:53.351Z,4.70
2022-11-24T08:54:19.588Z,5.06
2022-11-24T08:56:45.882Z,5.29
2022-11-24T08:59:12.163Z,5.25
2022-11-24T09:01:38.449Z,6.04
2022-11-24T09:04:04.760Z,5.17
2022-11-24T09:06:31.141Z,4.74
2022-11-24T09:08:57.425Z,4.64
2022-11-24T09:11:23.654Z,5.48
2022-11-24T09:13:50.173Z,5.21
2022-11-24T09:16:16.498Z,5.15
2022-11-24T09:18:42.798Z,5.37
2022-11-24T09:21:09.050Z,5.32
2022-11-24T09:23:35.286Z,5.19
2022-11-24T09:26:01.533Z,5.09
2022-11-24T09:28:27.781Z,4.93
2022-11-24T09:30:54.082Z,4.79
2022-11-24T09:33:20.403Z,5.07
2022-11-24T09:35:46.638Z,4.82
2022-11-24T09:38:12.882Z,4.66
2022-11-24T09:40:39.123Z,4.87
2022-11-24T09:43:05.375Z,4.92
2022-11-24T09:45:57.562Z,5.02
2022-11-24T09:48:17.823Z,5.84
2022-11-24T09:50:44.049Z,5.07
2022-11-24T09:53:10.286Z,4.38
2022-11-24T09:55:36.552Z,4.56
2022-11-24T09:58:02.811Z,4.89
2022-11-24T10:00:29.072Z,3.89
2022-11-24T10:02:55.378Z,4.73
2022-11-24T10:05:21.615Z,5.18
2022-11-24T10:07:47.974Z,5.07
2022-11-24T10:10:14.230Z,4.40
2022-11-24T10:12:41.006Z,4.79
2022-11-24T10:15:07.261Z,4.46
2022-11-24T10:17:33.510Z,4.07
2022-11-24T10:19:59.759Z,3.92
2022-11-24T10:22:26.023Z,3.85
2022-11-24T10:24:52.276Z,3.73
2022-11-24T10:27:18.527Z,4.57
2022-11-24T10:29:44.791Z,3.90
2022-11-24T10:32:11.031Z,3.94
2022-11-24T10:34:37.268Z,4.17
2022-11-24T10:37:03.501Z,3.76
2022-11-24T10:39:29.759Z,3.96
2022-11-24T10:41:55.991Z,4.10
2022-11-24T10:44:22.238Z,4.09
2022-11-24T10:46:48.509Z,3.65
2022-11-24T10:49:14.756Z,4.12
2022-11-24T10:51:41.009Z,4.34
2022-11-24T10:54:07.241Z,3.72
2022-11-24T10:56:33.470Z,4.51
2022-11-24T10:58:59.725Z,4.58
2022-11-24T11:01:26.034Z,3.95
2022-11-24T11:03:52.332Z,4.01
2022-11-24T11:06:18.573Z,4.62
2022-11-24T11:08:44.817Z,3.94
2022-11-24T11:11:11.070Z,4.35
2022-11-24T11:13:37.406Z,4.13
2022-11-24T11:16:03.730Z,4.82
2022-11-24T11:18:30.018Z,5.32
2022-11-24T11:20:56.273Z,4.76
2022-11-24T11:23:22.516Z,4.73
2022-11-24T11:25:48.752Z,4.72
2022-11-24T11:28:17.926Z,5.14
2022-11-24T11:36:17.152Z,5.33
2022-11-24T11:38:43.382Z,4.86
2022-11-24T11:41:09.614Z,4.82
2022-11-24T11:43:35.850Z,5.26
2022-11-24T11:46:02.216Z,5.70
2022-11-24T11:48:28.576Z,4.80
2022-11-24T11:53:41.055Z,4.95
2022-11-24T11:56:07.316Z,4.36
2022-11-24T11:58:33.559Z,4.42
2022-11-24T12:00:59.815Z,4.64
2022-11-24T12:03:26.228Z,4.17
2022-11-24T12:05:52.571Z,4.65
2022-11-24T12:08:21.299Z,4.89
2022-11-24T12:10:47.945Z,4.19
2022-11-24T12:13:14.290Z,3.72
2022-11-24T12:15:40.622Z,3.97
2022-11-24T12:18:06.957Z,3.94
2022-11-24T12:20:33.216Z,3.48
2022-11-24T12:22:59.445Z,3.96
2022-11-24T12:25:25.695Z,4.04
2022-11-24T12:27:51.927Z,3.85
2022-11-24T12:30:18.186Z,3.73
2022-11-24T12:32:44.420Z,3.87
2022-11-24T12:35:10.667Z,4.12
2022-11-24T12:37:36.925Z,4.42
2022-11-24T12:40:03.215Z,4.20
2022-11-24T12:42:29.474Z,4.39
2022-11-24T12:44:55.730Z,4.70
2022-11-24T12:47:21.965Z,4.18
2022-11-24T12:49:48.219Z,3.37
2022-11-24T12:52:14.478Z,3.49
2022-11-24T12:54:40.710Z,3.11
2022-11-24T12:57:06.961Z,3.55
2022-11-24T12:59:33.445Z,3.23
2022-11-24T13:01:59.910Z,2.84
2022-11-24T13:04:26.227Z,3.33
2022-11-24T13:06:52.463Z,3.96
2022-11-24T13:09:18.698Z,3.68
2022-11-24T13:11:44.945Z,3.50
2022-11-24T13:14:11.190Z,3.62
2022-11-24T13:16:48.741Z,3.12
2022-11-24T13:19:23.648Z,3.00
2022-11-24T13:21:49.874Z,2.91
2022-11-24T13:26:47.271Z,2.92
2022-11-24T13:29:24.969Z,3.58
2022-11-24T13:31:51.904Z,3.84
2022-11-24T13:34:18.169Z,3.04
2022-11-24T13:36:44.419Z,3.65
2022-11-24T13:39:10.646Z,3.09
2022-11-24T13:41:36.886Z,3.52
2022-11-24T13:44:03.110Z,3.33
2022-11-24T13:46:29.397Z,4.48
2022-11-24T13:48:55.771Z,4.58
2022-11-24T13:51:22.049Z,4.12
2022-11-24T13:53:48.290Z,4.07
2022-11-24T13:56:14.563Z,4.19
2022-11-24T13:58:40.805Z,5.01
2022-11-24T14:01:07.067Z,5.47
2022-11-24T14:03:33.305Z,4.37
2022-11-24T14:05:59.548Z,4.38
2022-11-24T14:08:25.793Z,4.47
2022-11-24T14:10:52.056Z,4.13
2022-11-24T14:13:18.299Z,4.16
2022-11-24T14:15:44.612Z,4.04
2022-11-24T14:18:10.874Z,3.92
2022-11-24T14:20:37.106Z,4.48
2022-11-24T14:23:03.331Z,4.06
2022-11-24T14:25:29.561Z,4.11
2022-11-24T14:27:55.829Z,4.05
2022-11-24T14:30:22.089Z,4.27
2022-11-24T14:32:48.337Z,3.99
2022-11-24T14:35:14.739Z,4.06
2022-11-24T14:37:41.025Z,4.01
2022-11-24T14:40:07.306Z,4.65
2022-11-24T14:42:33.599Z,4.35
2022-11-24T14:44:59.821Z,4.07
2022-11-24T14:47:30.846Z,4.01
2022-11-24T14:49:58.233Z,4.53
2022-11-24T14:52:24.524Z,3.76
2022-11-24T14:54:50.773Z,3.90
2022-11-24T14:57:17.006Z,4.60
2022-11-24T14:59:43.244Z,3.60
2022-11-24T15:02:09.547Z,4.10
2022-11-24T15:07:22.175Z,5.90
2022-11-24T15:09:48.458Z,5.99
2022-11-24T15:12:14.686Z,5.52
2022-11-24T15:14:40.914Z,3.97
2022-11-24T15:17:07.149Z,3.37
2022-11-24T15:19:33.385Z,3.98
2022-11-24T15:21:59.648Z,3.76
2022-11-24T15:24:25.903Z,4.13
2022-11-24T15:26:52.140Z,5.20
2022-11-24T15:29:18.393Z,4.86
2022-11-24T15:31:52.194Z,3.50
2022-11-24T15:34:18.966Z,3.47
2022-11-24T15:36:45.219Z,3.99
2022-11-24T15:39:11.494Z,4.36
2022-11-24T15:41:37.749Z,4.84
2022-11-24T15:44:03.985Z,4.66
2022-11-24T15:46:30.275Z,4.49
2022-11-24T15:48:56.549Z,4.44
2022-11-24T15:51:22.778Z,4.51
2022-11-24T15:53:49.028Z,3.81
2022-11-24T15:56:15.278Z,3.68
2022-11-24T15:58:41.505Z,4.49
2022-11-24T16:01:07.786Z,5.76
2022-11-24T16:03:49.641Z,6.82
2022-11-24T16:06:22.202Z,8.06
2022-11-24T16:08:50.696Z,4.42
2022-11-24T16:11:16.962Z,5.88
2022-11-24T16:13:48.381Z,9.24
2022-11-24T16:16:18.169Z,8.61
2022-11-24T16:18:44.461Z,6.21
2022-11-24T16:21:10.698Z,5.96
2022-11-24T16:23:36.946Z,4.82
2022-11-24T16:26:03.249Z,3.53
2022-11-24T16:28:29.495Z,3.08
2022-11-24T16:30:55.744Z,2.46
2022-11-24T16:33:21.997Z,2.81
2022-11-24T16:35:48.230Z,3.53
2022-11-24T16:38:14.471Z,3.27
2022-11-24T16:40:40.721Z,4.08
2022-11-24T16:43:06.958Z,9.36
2022-11-24T16:45:33.265Z,9.68
2022-11-24T16:47:59.530Z,2.42
2022-11-24T16:50:25.766Z,1.92
2022-11-24T16:52:51.999Z,2.28
2022-11-24T16:55:18.248Z,3.11
2022-11-24T16:57:44.518Z,3.18
2022-11-24T17:00:10.770Z,3.33
2022-11-24T17:02:37.118Z,3.46
2022-11-24T17:05:03.479Z,4.15
2022-11-24T17:07:29.784Z,9.45
2022-11-24T17:09:56.076Z,11.32
2022-11-24T17:12:22.330Z,10.28
2022-11-24T17:15:09.419Z,6.70
2022-11-24T17:17:34.777Z,2.95
2022-11-24T17:20:01.021Z,2.57
2022-11-24T17:22:27.250Z,2.85
2022-11-24T17:24:53.501Z,3.26
2022-11-24T17:27:19.729Z,3.07
2022-11-24T17:29:46.008Z,3.09
2022-11-24T17:32:12.316Z,4.05
2022-11-24T17:34:38.551Z,4.14
2022-11-24T17:37:04.802Z,3.94
2022-11-24T17:39:31.033Z,4.03
2022-11-24T17:41:57.280Z,3.90
2022-11-24T17:44:23.539Z,3.84
2022-11-24T17:46:49.782Z,3.81
2022-11-24T17:49:16.012Z,4.41
2022-11-24T17:51:42.241Z,4.13
2022-11-24T17:54:31.172Z,4.02
2022-11-24T17:56:54.692Z,3.81
2022-11-24T17:59:20.952Z,3.57
2022-11-24T18:01:47.213Z,3.39
2022-11-24T18:04:13.469Z,3.08
2022-11-24T18:06:39.730Z,3.15
2022-11-24T18:09:06.002Z,3.24
2022-11-24T18:11:32.432Z,3.07
2022-11-24T18:14:01.125Z,3.50
2022-11-24T18:16:28.164Z,3.53
2022-11-24T18:19:07.459Z,3.29
2022-11-24T18:21:34.452Z,4.29
2022-11-24T18:24:00.690Z,4.14
2022-11-24T18:26:26.935Z,3.54
2022-11-24T18:28:53.178Z,3.22
2022-11-24T18:31:19.439Z,3.17
2022-11-24T18:33:45.692Z,3.61
2022-11-24T18:36:11.925Z,3.09
2022-11-24T18:38:38.168Z,3.17
2022-11-24T18:41:04.408Z,3.08
2022-11-24T18:43:30.664Z,2.91
2022-11-24T18:45:56.937Z,3.31
2022-11-24T18:48:23.201Z,3.28
2022-11-24T18:50:49.469Z,3.23
2022-11-24T18:53:15.720Z,3.43
2022-11-24T18:55:41.980Z,3.07
2022-11-24T18:58:08.234Z,3.29
2022-11-24T19:00:34.480Z,3.64
2022-11-24T19:03:00.732Z,4.08
2022-11-24T19:05:26.992Z,3.39
2022-11-24T19:07:53.333Z,3.68
2022-11-24T19:10:19.632Z,3.69
2022-11-24T19:12:45.880Z,3.66
2022-11-24T19:15:12.135Z,3.77
2022-11-24T19:17:38.387Z,3.60
2022-11-24T19:20:04.622Z,3.93
2022-11-24T19:22:30.881Z,3.99
2022-11-24T19:24:57.117Z,3.52
2022-11-24T19:27:23.347Z,3.69
2022-11-24T19:29:49.597Z,3.67
2022-11-24T19:32:15.822Z,3.88
2022-11-24T19:34:42.056Z,3.83
2022-11-24T19:37:08.278Z,4.39
2022-11-24T19:39:34.625Z,4.47
2022-11-24T19:42:00.873Z,4.51
2022-11-24T19:44:27.102Z,4.51
2022-11-24T19:46:53.341Z,4.41
2022-11-24T19:49:19.589Z,5.32
2022-11-24T19:51:45.837Z,6.41
2022-11-24T19:54:12.083Z,7.44
2022-11-24T19:56:38.341Z,7.05
2022-11-24T19:59:04.587Z,5.92
2022-11-24T20:01:30.913Z,4.37
2022-11-24T20:03:57.232Z,4.31
2022-11-24T20:06:23.499Z,4.53
2022-11-24T20:08:49.760Z,5.30
2022-11-24T20:11:16.013Z,5.12
2022-11-24T20:13:42.261Z,4.97
2022-11-24T20:16:08.555Z,5.23
2022-11-24T20:18:40.431Z,5.74
2022-11-24T20:21:08.126Z,5.42
2022-11-24T20:23:34.350Z,6.49
2022-11-24T20:26:00.591Z,6.61
2022-11-24T20:28:26.822Z,6.56
2022-11-24T20:30:53.068Z,6.11
2022-11-24T20:33:19.308Z,5.84
2022-11-24T20:35:45.541Z,8.30
2022-11-24T20:38:11.797Z,13.45
2022-11-24T20:40:38.033Z,7.18
2022-11-24T20:43:04.282Z,4.74
2022-11-24T20:45:30.578Z,4.47
2022-11-24T20:47:56.865Z,4.56
2022-11-24T20:50:23.129Z,4.62
2022-11-24T20:52:49.363Z,4.05
2022-11-24T20:55:15.607Z,4.00
2022-11-24T20:57:41.867Z,3.80
2022-11-24T21:00:08.116Z,4.10
2022-11-24T21:02:34.399Z,3.86
2022-11-24T21:05:00.672Z,4.03
2022-11-24T21:07:27.038Z,5.51
2022-11-24T21:09:53.319Z,4.98
2022-11-24T21:12:19.564Z,5.33
2022-11-24T21:14:45.806Z,6.77
2022-11-24T21:17:12.059Z,6.60
2022-11-24T21:19:38.320Z,4.50
2022-11-24T21:22:04.557Z,9.43
2022-11-24T21:24:30.784Z,7.98
2022-11-24T21:26:57.021Z,5.64
2022-11-24T21:29:23.247Z,5.06
2022-11-24T21:31:49.544Z,3.70
2022-11-24T21:34:15.821Z,3.12
2022-11-24T21:36:42.075Z,2.90
2022-11-24T21:39:08.386Z,2.60
2022-11-24T21:41:34.660Z,2.81
2022-11-24T21:44:00.895Z,2.51
2022-11-24T21:46:27.129Z,2.46
2022-11-24T21:48:53.380Z,3.19
2022-11-24T21:51:19.610Z,3.60
2022-11-24T21:53:45.860Z,3.09
2022-11-24T21:56:12.227Z,2.64
2022-11-24T21:58:38.476Z,2.64
2022-11-24T22:01:04.777Z,2.96
2022-11-24T22:03:31.045Z,3.77
2022-11-24T22:05:57.289Z,4.17
2022-11-24T22:08:23.545Z,4.31
2022-11-24T22:10:49.809Z,4.31
2022-11-24T22:13:16.037Z,3.44
2022-11-24T22:15:42.277Z,3.22
2022-11-24T22:18:08.509Z,3.29
2022-11-24T22:20:34.733Z,3.68
2022-11-24T22:23:00.988Z,3.36
2022-11-24T22:25:27.233Z,3.32
2022-11-24T22:27:53.465Z,3.33
2022-11-24T22:30:19.699Z,3.23
2022-11-24T22:32:45.973Z,3.40
2022-11-24T22:35:12.217Z,3.77
2022-11-24T22:37:38.461Z,3.23
2022-11-24T22:40:04.698Z,3.09
2022-11-24T22:42:30.925Z,3.16
2022-11-24T22:44:57.180Z,3.69
2022-11-24T22:47:23.481Z,3.23
2022-11-24T22:49:49.709Z,2.83
2022-11-24T22:52:15.960Z,3.11
2022-11-24T22:54:42.205Z,3.07
2022-11-24T22:57:08.476Z,2.94
2022-11-24T22:59:34.752Z,2.83
2022-11-24T23:02:00.982Z,3.21
2022-11-24T23:04:27.283Z,2.87
2022-11-24T23:06:53.568Z,2.76
2022-11-24T23:09:19.829Z,2.87
2022-11-24T23:11:46.078Z,2.78
2022-11-24T23:14:12.321Z,3.08
2022-11-24T23:16:38.649Z,3.52
2022-11-24T23:19:04.953Z,3.61
2022-11-24T23:21:31.209Z,3.52
2022-11-24T23:23:57.441Z,3.76
2022-11-24T23:26:23.677Z,5.17
2022-11-24T23:28:49.934Z,3.80
2022-11-24T23:31:16.226Z,3.93
2022-11-24T23:33:42.511Z,4.08
2022-11-24T23:36:08.772Z,4.22
2022-11-24T23:38:35.018Z,3.86
2022-11-24T23:41:01.280Z,4.51
2022-11-24T23:43:27.541Z,4.08
2022-11-24T23:45:53.799Z,4.01
2022-11-24T23:48:20.090Z,4.31
2022-11-24T23:50:46.345Z,4.48
2022-11-24T23:53:12.621Z,4.57
2022-11-24T23:55:38.917Z,4.66
2022-11-24T23:58:05.143Z,5.17
